Time;durP1;ratioP1;P1;durP2;ratioP2;P2;SDS_P1;SDS_P2;PMS_P1;PMS_P2;Temp;Humidity;BMP_temperature;BMP_pressure;BME280_temperature;BME280_humidity;BME280_pressure;Samples;Min_cycle;Max_cycle;Signal;HPM_P1;HPM_P2
2021/11/03 00:00:40;;;;;;;40.53;23.77;;;4.40;99.90;;;;;;5005366;28;20077;-78
2021/11/03 00:03:06;;;;;;;32.67;20.38;;;4.40;99.90;;;;;;5028902;28;20505;-77
2021/11/03 00:05:33;;;;;;;38.78;23.63;;;4.30;99.90;;;;;;5025317;28;20040;-77
2021/11/03 00:08:00;;;;;;;41.15;24.17;;;4.30;99.90;;;;;;5019540;28;20014;-78
2021/11/03 00:10:26;;;;;;;39.67;24.83;;;4.20;99.90;;;;;;5019015;28;20049;-78
2021/11/03 00:12:53;;;;;;;31.73;20.70;;;4.20;99.90;;;;;;5018241;28;20032;-77
2021/11/03 00:15:18;;;;;;;;;;;4.20;99.90;;;;;;5001540;28;20022;-77
2021/11/03 00:17:44;;;;;;;48.70;32.63;;;4.10;99.90;;;;;;5001157;28;19984;-77
2021/11/03 00:20:14;;;;;;;;;;;4.10;99.90;;;;;;5001989;28;20045;-77
2021/11/03 00:22:42;;;;;;;33.03;18.85;;;4.10;99.90;;;;;;5018258;28;20515;-77
2021/11/03 00:25:08;;;;;;;;;;;4.10;99.90;;;;;;5000897;28;20053;-78
2021/11/03 00:27:33;;;;;;;69.43;43.97;;;4.10;99.90;;;;;;5001873;28;19909;-77
2021/11/03 00:29:59;;;;;;;;;;;4.00;99.90;;;;;;5019408;28;20494;-77
2021/11/03 00:32:24;;;;;;;30.77;20.52;;;4.00;99.90;;;;;;5019301;28;19916;-77
2021/11/03 00:34:50;;;;;;;;;;;4.20;99.90;;;;;;5020488;28;20048;-77
2021/11/03 00:37:16;;;;;;;29.08;19.02;;;3.80;99.90;;;;;;5002474;28;20068;-78
2021/11/03 00:39:42;;;;;;;;;;;4.80;99.90;;;;;;5002658;28;20034;-77
2021/11/03 00:42:08;;;;;;;29.08;17.80;;;4.50;99.90;;;;;;5001446;28;19952;-77
2021/11/03 00:44:34;;;;;;;;;;;3.90;99.90;;;;;;5005005;28;20034;-77
2021/11/03 00:46:59;;;;;;;22.58;15.55;;;4.10;99.90;;;;;;5009926;28;19905;-77
2021/11/03 00:49:25;;;;;;;;;;;3.90;99.90;;;;;;5005151;28;20029;-77
2021/11/03 00:51:55;;;;;;;24.98;16.50;;;3.90;99.90;;;;;;4999592;28;19913;-77
2021/11/03 00:54:21;;;;;;;23.83;15.82;;;3.90;99.90;;;;;;5015785;28;20517;-78
2021/11/03 00:56:48;;;;;;;;;;;4.00;99.90;;;;;;4981443;28;20034;-77
2021/11/03 00:59:14;;;;;;;32.80;19.58;;;3.80;99.90;;;;;;4997892;28;19921;-79
2021/11/03 01:01:40;;;;;;;27.83;17.63;;;3.70;99.90;;;;;;4997568;28;20054;-78
2021/11/03 01:04:06;;;;;;;28.45;20.17;;;3.80;99.90;;;;;;4996963;28;20022;-77
2021/11/03 01:06:31;;;;;;;;;;;3.70;99.90;;;;;;5015157;28;20049;-77
2021/11/03 01:08:57;;;;;;;28.10;17.63;;;4.30;99.90;;;;;;4996784;28;19909;-78
2021/11/03 01:11:23;;;;;;;;;;;3.60;99.90;;;;;;5015984;28;20093;-78
2021/11/03 01:13:49;;;;;;;26.00;16.40;;;3.60;99.90;;;;;;4996464;28;19960;-77
2021/11/03 01:16:15;;;;;;;;;;;3.60;99.90;;;;;;4997821;28;20552;-77
2021/11/03 01:18:40;;;;;;;31.83;18.40;;;3.60;99.90;;;;;;5015267;28;19921;-77
2021/11/03 01:21:06;;;;;;;;;;;3.70;99.90;;;;;;4998068;28;20041;-78
2021/11/03 01:23:32;;;;;;;30.83;18.98;;;3.80;99.90;;;;;;4997355;28;19905;-77
2021/11/03 01:25:57;;;;;;;;;;;3.80;99.90;;;;;;4997516;28;20038;-77
2021/11/03 01:28:24;;;;;;;34.50;21.80;;;3.70;99.90;;;;;;4997829;28;20289;-78
2021/11/03 01:30:49;;;;;;;;;;;4.00;99.90;;;;;;4981922;28;20529;-77
2021/11/03 01:33:18;;;;;;;28.33;18.58;;;3.90;99.90;;;;;;4997823;28;19909;-77
2021/11/03 01:35:45;;;;;;;23.23;17.92;;;3.90;99.90;;;;;;5015837;28;20054;-78
2021/11/03 01:38:13;;;;;;;35.40;20.25;;;4.00;99.90;;;;;;5015629;28;20093;-77
2021/11/03 01:40:41;;;;;;;25.83;16.50;;;4.00;99.90;;;;;;4997716;28;20046;-78
2021/11/03 01:43:09;;;;;;;21.63;14.55;;;4.10;99.90;;;;;;4999085;28;20026;-78
2021/11/03 01:45:35;;;;;;;20.05;14.07;;;4.10;99.90;;;;;;5016574;28;20030;-77
2021/11/03 01:48:08;;;;;;;20.85;13.63;;;4.30;99.90;;;;;;4998695;28;20052;-77
2021/11/03 01:50:41;;;;;;;17.63;12.68;;;4.00;99.90;;;;;;5016135;28;20443;-78
2021/11/03 01:53:19;;;;;;;20.38;14.80;;;4.00;99.90;;;;;;5015010;28;20030;-77
2021/11/03 01:56:05;;;;;;;20.45;13.82;;;4.00;99.90;;;;;;5018444;28;20030;-78
2021/11/03 01:58:55;;;;;;;17.95;12.68;;;4.30;99.90;;;;;;4998966;28;20037;-77
2021/11/03 02:01:21;;;;;;;19.70;13.50;;;3.80;99.90;;;;;;5017384;28;20038;-77
2021/11/03 02:03:50;;;;;;;19.67;12.85;;;3.80;99.90;;;;;;4982992;28;20189;-77
2021/11/03 02:06:22;;;;;;;20.45;13.23;;;3.70;99.90;;;;;;4997117;28;20026;-77
2021/11/03 02:08:52;;;;;;;23.08;13.80;;;3.70;99.90;;;;;;5019807;28;20045;-78
2021/11/03 02:11:24;;;;;;;28.38;14.38;;;3.60;99.90;;;;;;5018335;28;20032;-77
2021/11/03 02:13:51;;;;;;;27.15;13.65;;;3.50;99.90;;;;;;5019401;28;20037;-78
2021/11/03 02:16:20;;;;;;;24.38;15.55;;;3.50;99.90;;;;;;5022251;28;20092;-80
2021/11/03 02:18:55;;;;;;;20.35;14.13;;;3.50;99.90;;;;;;5019629;28;20425;-79
2021/11/03 02:21:23;;;;;;;;;;;3.70;99.90;;;;;;5019691;28;20121;-78
2021/11/03 02:24:07;;;;;;;22.75;14.27;;;3.50;99.90;;;;;;5002227;28;20389;-77
2021/11/03 02:26:42;;;;;;;22.00;14.65;;;3.60;99.90;;;;;;5004497;28;20031;-77
2021/11/03 02:29:11;;;;;;;25.90;15.57;;;3.60;99.90;;;;;;4979945;28;20026;-79
2021/11/03 02:31:44;;;;;;;25.60;16.27;;;3.60;99.90;;;;;;4986367;28;20114;-78
2021/11/03 02:34:21;;;;;;;25.90;14.63;;;3.60;99.90;;;;;;4998636;28;20137;-77
2021/11/03 02:36:55;;;;;;;21.67;13.88;;;3.70;99.90;;;;;;4999561;28;20122;-78
2021/11/03 02:39:29;;;;;;;19.58;13.75;;;3.60;99.90;;;;;;5001587;28;20058;-77
2021/11/03 02:41:55;;;;;;;23.85;14.10;;;3.70;99.90;;;;;;4984163;28;20158;-77
2021/11/03 02:44:25;;;;;;;19.52;12.75;;;3.60;99.90;;;;;;4983173;28;20026;-77
2021/11/03 02:46:52;;;;;;;22.58;13.90;;;3.70;99.90;;;;;;4982004;28;20060;-77
2021/11/03 02:49:18;;;;;;;20.33;13.35;;;3.60;99.90;;;;;;5007337;28;20587;-78
2021/11/03 02:51:45;;;;;;;;;;;3.60;99.90;;;;;;5012082;28;20014;-77
2021/11/03 02:54:14;;;;;;;23.08;13.88;;;3.70;99.90;;;;;;5003685;28;19909;-76
2021/11/03 02:56:44;;;;;;;23.88;15.13;;;3.70;99.90;;;;;;4986140;28;20042;-76
2021/11/03 02:59:11;;;;;;;19.85;13.20;;;3.70;99.90;;;;;;4981360;28;20125;-76
2021/11/03 03:01:46;;;;;;;22.60;14.35;;;3.70;99.90;;;;;;4984549;28;20034;-77
2021/11/03 03:04:34;;;;;;;24.27;13.52;;;3.70;99.90;;;;;;4998691;28;20031;-77
2021/11/03 03:07:00;;;;;;;18.95;12.00;;;3.80;99.90;;;;;;4980788;28;20506;-77
2021/11/03 03:09:25;;;;;;;;;;;3.90;99.90;;;;;;4981034;28;20041;-76
2021/11/03 03:11:56;;;;;;;18.92;11.80;;;3.90;99.90;;;;;;4995328;28;20213;-76
2021/11/03 03:14:25;;;;;;;20.83;12.23;;;3.90;99.90;;;;;;4994831;28;20037;-77
2021/11/03 03:16:51;;;;;;;20.90;12.05;;;3.90;99.90;;;;;;4994826;28;20062;-76
2021/11/03 03:19:17;;;;;;;;;;;3.90;99.90;;;;;;4989049;28;20626;-76
2021/11/03 03:21:43;;;;;;;22.05;10.52;;;3.90;99.90;;;;;;4991142;28;19917;-76
2021/11/03 03:24:12;;;;;;;18.73;12.57;;;3.90;99.90;;;;;;4992791;28;20034;-76
2021/11/03 03:26:39;;;;;;;19.88;12.95;;;3.80;99.90;;;;;;4997014;28;20093;-76
2021/11/03 03:29:06;;;;;;;19.25;13.00;;;3.80;99.90;;;;;;4990781;28;20042;-77
2021/11/03 03:31:33;;;;;;;24.00;13.02;;;3.80;99.90;;;;;;4990065;28;20064;-77
2021/11/03 03:34:02;;;;;;;21.52;12.20;;;3.80;99.90;;;;;;4987513;28;20053;-76
2021/11/03 03:36:29;;;;;;;25.75;13.93;;;3.70;99.90;;;;;;4982190;28;20441;-76
2021/11/03 03:38:55;;;;;;;19.30;11.57;;;3.60;99.90;;;;;;4993177;28;20042;-77
2021/11/03 03:41:23;;;;;;;20.05;11.45;;;3.50;99.90;;;;;;4983528;28;20573;-77
2021/11/03 03:43:50;;;;;;;20.40;11.55;;;3.50;99.90;;;;;;4998555;28;20030;-77
2021/11/03 03:46:17;;;;;;;21.10;11.13;;;3.40;99.90;;;;;;4981115;28;20031;-77
2021/11/03 03:48:42;;;;;;;19.02;10.65;;;3.30;99.90;;;;;;4998319;28;20407;-77
2021/11/03 03:51:10;;;;;;;;;;;3.30;99.90;;;;;;4998475;28;20498;-76
2021/11/03 03:53:37;;;;;;;31.00;16.17;;;3.20;99.90;;;;;;4981560;28;19905;-77
2021/11/03 03:56:03;;;;;;;33.15;17.35;;;3.20;99.90;;;;;;4980354;28;20057;-78
2021/11/03 03:58:28;;;;;;;;;;;3.20;99.90;;;;;;4998997;28;20033;-77
2021/11/03 04:00:54;;;;;;;34.97;17.45;;;3.40;99.90;;;;;;4981210;28;19914;-77
2021/11/03 04:03:20;;;;;;;;;;;3.20;99.90;;;;;;4981031;28;20129;-77
2021/11/03 04:05:46;;;;;;;35.85;18.60;;;3.30;99.90;;;;;;4990591;28;19905;-78
2021/11/03 04:08:13;;;;;;;38.35;18.63;;;3.20;99.90;;;;;;4997204;28;20030;-77
2021/11/03 04:10:43;;;;;;;43.00;22.60;;;3.20;99.90;;;;;;4996350;28;20034;-77
2021/11/03 04:13:09;;;;;;;40.50;17.98;;;3.40;99.90;;;;;;4996418;28;20034;-77
2021/11/03 04:15:36;;;;;;;30.80;14.48;;;3.30;99.90;;;;;;4978763;28;20041;-77
2021/11/03 04:18:03;;;;;;;27.20;14.45;;;3.30;99.90;;;;;;4978678;28;20085;-77
2021/11/03 04:20:30;;;;;;;12.88;8.20;;;3.30;99.90;;;;;;4980629;28;20046;-77
2021/11/03 04:22:56;;;;;;;16.58;9.63;;;3.40;99.90;;;;;;4978661;28;20425;-76
2021/11/03 04:25:22;;;;;;;;;;;3.40;99.90;;;;;;4978889;28;20034;-77
2021/11/03 04:27:48;;;;;;;20.00;9.88;;;3.50;99.90;;;;;;4978613;28;19916;-77
2021/11/03 04:30:15;;;;;;;;;;;3.40;99.90;;;;;;4980081;28;20034;-77
2021/11/03 04:32:41;;;;;;;14.38;8.52;;;3.40;99.90;;;;;;4978841;28;20033;-77
2021/11/03 04:35:07;;;;;;;;;;;3.30;99.90;;;;;;4997817;28;20054;-77
2021/11/03 04:37:33;;;;;;;18.25;10.48;;;3.30;99.90;;;;;;4996811;28;19910;-77
2021/11/03 04:39:59;;;;;;;23.60;11.70;;;3.30;99.90;;;;;;4979069;28;20062;-76
2021/11/03 04:42:24;;;;;;;;;;;3.30;99.90;;;;;;4997640;28;20458;-77
2021/11/03 04:44:51;;;;;;;31.10;14.52;;;3.30;99.90;;;;;;4997557;28;20412;-77
2021/11/03 04:47:16;;;;;;;;;;;3.20;99.90;;;;;;4980303;28;20442;-77
2021/11/03 04:49:42;;;;;;;17.08;10.15;;;3.30;99.90;;;;;;4997393;28;19916;-77
2021/11/03 04:52:08;;;;;;;17.35;10.48;;;3.40;99.90;;;;;;4980288;28;20054;-77
2021/11/03 04:54:34;;;;;;;;;;;3.50;99.90;;;;;;4998554;28;20034;-77
2021/11/03 04:56:59;;;;;;;14.60;9.02;;;3.60;99.90;;;;;;4980360;28;19913;-77
2021/11/03 04:59:25;;;;;;;;;;;3.50;99.90;;;;;;4979852;28;20546;-77
2021/11/03 05:01:51;;;;;;;16.42;9.93;;;3.50;99.90;;;;;;4979748;28;19909;-77
2021/11/03 05:04:16;;;;;;;;;;;3.50;99.90;;;;;;4979894;28;20033;-76
2021/11/03 05:06:44;;;;;;;38.20;15.15;;;3.60;99.90;;;;;;4979251;28;19916;-77
2021/11/03 05:09:11;;;;;;;39.63;16.85;;;3.50;99.90;;;;;;4979964;28;20053;-77
2021/11/03 05:11:36;;;;;;;60.10;22.27;;;3.50;99.90;;;;;;4980029;28;20026;-77
2021/11/03 05:14:02;;;;;;;;;;;3.40;99.90;;;;;;4981016;28;20049;-77
2021/11/03 05:16:28;;;;;;;38.03;18.08;;;3.30;99.90;;;;;;4981486;28;19910;-77
2021/11/03 05:18:55;;;;;;;;;;;3.30;99.90;;;;;;4995921;28;20093;-77
2021/11/03 05:21:21;;;;;;;88.78;29.33;;;3.20;99.90;;;;;;4980815;28;19916;-77
2021/11/03 05:23:48;;;;;;;79.03;29.55;;;3.10;99.90;;;;;;4980861;28;20106;-77
2021/11/03 05:26:20;;;;;;;56.20;22.95;;;3.20;99.90;;;;;;4999242;28;20482;-77
2021/11/03 05:28:48;;;;;;;38.05;17.77;;;3.30;99.90;;;;;;4999806;28;20026;-77
2021/11/03 05:31:14;;;;;;;34.60;15.13;;;3.10;99.90;;;;;;4981761;28;20477;-77
2021/11/03 05:33:40;;;;;;;;;;;3.20;99.90;;;;;;4986638;28;20042;-78
2021/11/03 05:36:05;;;;;;;41.65;16.80;;;3.10;99.90;;;;;;4987853;28;19910;-77
2021/11/03 05:38:31;;;;;;;;;;;3.10;99.90;;;;;;4983528;28;20022;-77
2021/11/03 05:40:57;;;;;;;103.60;15.57;;;3.10;99.90;;;;;;4980205;28;19928;-77
2021/11/03 05:43:22;;;;;;;;;;;3.70;99.90;;;;;;4987455;28;20034;-78
2021/11/03 05:45:49;;;;;;;229.75;19.33;;;3.30;99.90;;;;;;4982440;28;19909;-77
2021/11/03 05:48:17;;;;;;;198.02;23.00;;;3.10;99.90;;;;;;4995900;28;20034;-77
2021/11/03 05:50:43;;;;;;;544.03;36.40;;;3.00;99.90;;;;;;4978410;28;20068;-77
2021/11/03 05:53:09;;;;;;;;;;;3.00;99.90;;;;;;4995907;28;20030;-77
2021/11/03 05:55:36;;;;;;;222.50;19.90;;;2.90;99.90;;;;;;4979193;28;19905;-77
2021/11/03 05:58:03;;;;;;;65.47;17.02;;;2.90;99.90;;;;;;4978746;28;20035;-77
2021/11/03 06:00:33;;;;;;;102.63;18.75;;;2.90;99.90;;;;;;4978843;28;20046;-77
2021/11/03 06:02:59;;;;;;;40.05;14.50;;;2.90;99.90;;;;;;4980089;28;20030;-77
2021/11/03 06:05:25;;;;;;;133.10;13.52;;;2.90;99.90;;;;;;4982986;28;20029;-78
2021/11/03 06:07:51;;;;;;;;;;;2.90;99.90;;;;;;4998872;28;20030;-77
2021/11/03 06:10:22;;;;;;;200.68;17.33;;;3.30;99.90;;;;;;4995838;28;19972;-78
2021/11/03 06:12:48;;;;;;;95.68;13.68;;;2.80;99.90;;;;;;4998613;28;20037;-78
2021/11/03 06:15:14;;;;;;;;;;;2.80;99.90;;;;;;4998734;28;20030;-77
2021/11/03 06:17:39;;;;;;;58.63;15.05;;;2.90;99.90;;;;;;4979792;28;19906;-77
2021/11/03 06:20:05;;;;;;;;;;;3.10;99.90;;;;;;4981166;28;20057;-78
2021/11/03 06:22:32;;;;;;;109.78;19.02;;;3.00;99.90;;;;;;4979903;28;20393;-77
2021/11/03 06:24:58;;;;;;;38.67;14.65;;;3.20;99.90;;;;;;4978812;28;20856;-77
2021/11/03 06:27:24;;;;;;;306.95;23.45;;;3.20;99.90;;;;;;4980062;28;20039;-78
2021/11/03 06:29:50;;;;;;;;;;;3.60;99.90;;;;;;4981116;28;20497;-77
2021/11/03 06:32:18;;;;;;;290.02;23.23;;;3.50;99.90;;;;;;4998118;28;19910;-77
2021/11/03 06:34:44;;;;;;;151.68;32.55;;;3.50;99.90;;;;;;4997337;28;20086;-77
2021/11/03 06:37:09;;;;;;;;;;;3.60;99.90;;;;;;4980428;28;20069;-78
2021/11/03 06:39:36;;;;;;;250.50;21.77;;;4.00;99.90;;;;;;4980554;28;20297;-77
2021/11/03 06:42:03;;;;;;;267.83;19.30;;;3.90;99.90;;;;;;4997777;28;20054;-77
2021/11/03 06:44:29;;;;;;;140.15;19.58;;;3.80;99.90;;;;;;4998455;28;20030;-77
2021/11/03 06:46:54;;;;;;;;;;;3.80;99.90;;;;;;4998905;28;20034;-77
2021/11/03 06:49:21;;;;;;;191.63;17.40;;;4.00;99.90;;;;;;4998026;28;19906;-78
2021/11/03 06:51:47;;;;;;;62.08;16.15;;;4.00;99.90;;;;;;4998616;28;20030;-77
2021/11/03 06:54:14;;;;;;;;;;;4.10;99.90;;;;;;4998720;28;20105;-77
2021/11/03 06:56:40;;;;;;;36.17;19.55;;;4.20;99.90;;;;;;4980289;28;20493;-78
2021/11/03 06:59:07;;;;;;;37.05;21.40;;;4.50;99.90;;;;;;4997153;28;20037;-78
2021/11/03 07:01:34;;;;;;;33.50;18.85;;;4.80;99.90;;;;;;4980594;28;20081;-78
2021/11/03 07:04:00;;;;;;;30.50;18.05;;;5.20;99.90;;;;;;4981069;28;20048;-77
2021/11/03 07:06:31;;;;;;;37.47;25.20;;;5.80;99.90;;;;;;4999693;28;20032;-77
2021/11/03 07:08:58;;;;;;;;;;;6.30;99.90;;;;;;4983130;28;20030;-77
2021/11/03 07:11:27;;;;;;;22.55;15.75;;;6.90;99.90;;;;;;4998751;28;19910;-77
2021/11/03 07:13:53;;;;;;;24.23;15.63;;;7.40;99.90;;;;;;4996881;28;20042;-79
2021/11/03 07:16:19;;;;;;;;;;;7.80;99.90;;;;;;4995238;28;20022;-77
2021/11/03 07:18:44;;;;;;;15.93;12.07;;;8.20;99.90;;;;;;4978007;28;19926;-78
2021/11/03 07:21:10;;;;;;;;;;;8.60;99.90;;;;;;4996428;28;20843;-85
2021/11/03 07:23:36;;;;;;;17.27;12.02;;;8.80;99.90;;;;;;4992834;28;19909;-78
2021/11/03 07:26:01;;;;;;;;;;;8.90;99.90;;;;;;4974890;28;20049;-79
2021/11/03 07:28:28;;;;;;;15.60;11.35;;;9.10;99.90;;;;;;4974689;28;19968;-79
2021/11/03 07:30:54;;;;;;;14.75;11.30;;;9.40;99.90;;;;;;4974341;28;20034;-79
2021/11/03 07:33:20;;;;;;;;;;;9.50;99.90;;;;;;4992458;28;20037;-78
2021/11/03 07:35:46;;;;;;;21.85;10.63;;;9.80;99.90;;;;;;4991510;28;19917;-79
2021/11/03 07:38:12;;;;;;;;;;;10.10;99.90;;;;;;4974783;28;20038;-80
2021/11/03 07:40:44;;;;;;;11.18;8.70;;;10.50;99.90;;;;;;4991398;28;19925;-80
2021/11/03 07:43:11;;;;;;;13.82;8.57;;;11.00;99.90;;;;;;4974009;28;20034;-79
2021/11/03 07:45:39;;;;;;;10.70;8.70;;;11.30;99.90;;;;;;4974078;28;20069;-79
2021/11/03 07:48:06;;;;;;;11.10;7.85;;;11.40;99.90;;;;;;4973941;28;20121;-81
2021/11/03 07:50:37;;;;;;;10.82;8.35;;;11.60;99.90;;;;;;4991506;28;20858;-83
2021/11/03 07:53:04;;;;;;;11.93;8.32;;;11.60;99.90;;;;;;4991306;28;20030;-80
2021/11/03 07:55:30;;;;;;;11.23;7.05;;;11.60;99.90;;;;;;4973906;28;20176;-82
2021/11/03 07:57:56;;;;;;;9.20;7.15;;;11.70;99.90;;;;;;4973836;28;20026;-83
2021/11/03 08:00:23;;;;;;;;;;;11.70;99.90;;;;;;4974199;28;20096;-82
2021/11/03 08:02:49;;;;;;;11.20;8.82;;;11.60;99.90;;;;;;4973491;28;19916;-79
2021/11/03 08:05:15;;;;;;;;;;;11.40;99.90;;;;;;4974075;28;20402;-79
2021/11/03 08:07:41;;;;;;;13.48;10.40;;;11.30;99.90;;;;;;4973714;28;19945;-81
2021/11/03 08:10:12;;;;;;;;;;;11.10;99.90;;;;;;4974176;28;20030;-81
2021/11/03 08:12:38;;;;;;;21.13;16.48;;;11.00;99.90;;;;;;4973496;28;19933;-79
2021/11/03 08:15:04;;;;;;;;;;;10.80;99.90;;;;;;4974083;28;20052;-83
2021/11/03 08:17:32;;;;;;;43.90;26.98;;;10.60;99.90;;;;;;4974211;28;19909;-78
2021/11/03 08:19:59;;;;;;;34.17;21.50;;;10.50;99.90;;;;;;4991043;28;20054;-79
2021/11/03 08:22:25;;;;;;;31.48;19.02;;;10.40;99.90;;;;;;4990923;28;20022;-79
2021/11/03 08:24:55;;;;;;;;;;;10.30;99.90;;;;;;4973608;28;20062;-80
2021/11/03 08:27:24;;;;;;;28.50;16.60;;;10.30;99.90;;;;;;4973649;28;20646;-78
2021/11/03 08:29:51;;;;;;;28.85;16.55;;;10.30;99.90;;;;;;4973328;28;20037;-79
2021/11/03 08:32:21;;;;;;;28.77;15.75;;;10.20;99.90;;;;;;4973166;28;20033;-79
2021/11/03 08:34:48;;;;;;;29.25;15.07;;;10.40;99.90;;;;;;4972073;28;20030;-80
2021/11/03 08:37:18;;;;;;;15.07;7.55;;;10.40;99.90;;;;;;4973299;28;20034;-80
2021/11/03 08:39:47;;;;;;;9.48;6.35;;;10.60;99.90;;;;;;4973334;28;20030;-84
2021/11/03 08:42:13;;;;;;;6.07;2.88;;;10.90;99.90;;;;;;4973125;28;20061;-80
2021/11/03 08:44:40;;;;;;;;;;;11.10;99.90;;;;;;4973531;28;20383;-82
2021/11/03 08:47:07;;;;;;;3.05;1.98;;;11.20;99.90;;;;;;4972940;28;19941;-81
2021/11/03 08:49:34;;;;;;;3.25;1.50;;;11.20;99.90;;;;;;4972912;28;20022;-79
2021/11/03 08:51:59;;;;;;;2.90;1.60;;;11.20;99.90;;;;;;4972923;28;20080;-79
2021/11/03 08:54:39;;;;;;;3.87;1.43;;;11.10;99.90;;;;;;5107039;27;20144;-81
2021/11/03 08:57:10;;;;;;;5.65;3.60;;;11.10;99.90;;;;;;5088800;28;20028;-83
2021/11/03 08:59:35;;;;;;;6.70;2.80;;;10.90;99.90;;;;;;5088553;28;20089;-80
2021/11/03 09:02:03;;;;;;;;;;;10.90;99.90;;;;;;5089089;28;20056;-78
2021/11/03 09:04:30;;;;;;;;;;;10.80;99.90;;;;;;5088485;28;19915;-77
2021/11/03 09:06:57;;;;;;;2.95;2.00;;;10.60;99.90;;;;;;5087898;28;20421;-78
2021/11/03 09:09:23;;;;;;;3.80;2.00;;;10.50;99.90;;;;;;5088099;28;20107;-78
2021/11/03 09:11:51;;;;;;;6.97;2.10;;;10.50;99.90;;;;;;5087919;28;20411;-79
2021/11/03 09:14:20;;;;;;;3.15;2.13;;;10.50;99.90;;;;;;5085718;28;20035;-79
2021/11/03 09:16:48;;;;;;;4.75;1.70;;;10.50;99.90;;;;;;5067923;28;20030;-77
2021/11/03 09:19:14;;;;;;;3.70;2.30;;;10.60;99.90;;;;;;5086294;28;20032;-77
2021/11/03 09:21:41;;;;;;;4.13;3.10;;;10.50;99.90;;;;;;5087847;28;20058;-77
2021/11/03 09:24:06;;;;;;;;;;;10.50;99.90;;;;;;5087541;28;20476;-78
2021/11/03 09:26:32;;;;;;;6.00;3.13;;;10.40;99.90;;;;;;5068134;28;19908;-78
2021/11/03 09:28:59;;;;;;;;;;;10.30;99.90;;;;;;5068661;28;20024;-79
2021/11/03 09:31:26;;;;;;;5.07;3.28;;;10.30;99.90;;;;;;5086046;28;19912;-77
2021/11/03 09:33:52;;;;;;;5.45;2.95;;;10.30;99.90;;;;;;5067538;28;20490;-78
2021/11/03 09:36:18;;;;;;;;;;;10.30;99.90;;;;;;5068466;28;20046;-77
2021/11/03 09:38:45;;;;;;;6.88;4.20;;;10.30;99.90;;;;;;5067399;28;20560;-77
2021/11/03 09:41:11;;;;;;;7.53;4.97;;;10.30;99.90;;;;;;5085474;28;20039;-77
2021/11/03 09:43:41;;;;;;;;;;;10.30;99.90;;;;;;5085940;28;20399;-78
2021/11/03 09:46:25;;;;;;;11.20;4.72;;;10.20;99.90;;;;;;5084957;28;19911;-76
2021/11/03 09:49:18;;;;;;;6.57;3.78;;;10.30;99.90;;;;;;5085460;28;20037;-77
2021/11/03 09:51:48;;;;;;;7.88;4.53;;;10.60;99.90;;;;;;5086326;28;20097;-78
2021/11/03 09:54:22;;;;;;;6.88;3.17;;;10.60;99.90;;;;;;5085982;28;20063;-77
2021/11/03 09:57:19;;;;;;;3.95;2.67;;;10.60;99.90;;;;;;5085092;28;20017;-77
2021/11/03 09:59:50;;;;;;;6.00;3.55;;;10.70;99.90;;;;;;5085049;28;20457;-78
2021/11/03 10:02:19;;;;;;;3.55;2.28;;;10.90;99.90;;;;;;5066751;28;20113;-77
2021/11/03 10:05:01;;;;;;;3.22;1.83;;;11.00;99.90;;;;;;5059723;28;20024;-77
2021/11/03 10:07:48;;;;;;;3.90;2.30;;;11.00;99.90;;;;;;5071454;28;20552;-78
2021/11/03 10:10:28;;;;;;;3.88;2.85;;;11.00;99.90;;;;;;5071581;28;20103;-78
2021/11/03 10:12:55;;;;;;;6.07;3.38;;;11.20;99.90;;;;;;5053763;28;20170;-77
2021/11/03 10:15:24;;;;;;;8.40;5.07;;;11.10;99.90;;;;;;5074045;28;20020;-77
2021/11/03 10:18:15;;;;;;;7.20;5.40;;;11.10;99.90;;;;;;5072732;28;20040;-78
2021/11/03 10:20:47;;;;;;;4.35;3.03;;;11.00;99.90;;;;;;5054033;28;20032;-78
2021/11/03 10:23:23;;;;;;;3.67;2.40;;;11.10;99.90;;;;;;5056245;28;20547;-77
2021/11/03 10:25:58;;;;;;;6.10;2.25;;;11.20;99.90;;;;;;5054720;28;20052;-77
2021/11/03 10:28:31;;;;;;;4.35;2.53;;;11.20;99.90;;;;;;5053145;28;20033;-77
2021/11/03 10:30:57;;;;;;;4.78;2.20;;;11.30;99.90;;;;;;5070581;28;20029;-77
2021/11/03 10:33:49;;;;;;;;;;;11.30;99.90;;;;;;5070903;28;20077;-79
2021/11/03 10:36:20;;;;;;;5.28;2.00;;;11.40;99.90;;;;;;5049980;28;20388;-78
2021/11/03 10:38:53;;;;;;;4.60;1.77;;;11.50;99.90;;;;;;5070990;28;20060;-79
2021/11/03 10:41:32;;;;;;;3.58;1.85;;;11.40;99.90;;;;;;5070618;28;20032;-77
2021/11/03 10:44:03;;;;;;;2.88;1.50;;;11.40;99.90;;;;;;5070879;28;20089;-77
2021/11/03 10:46:45;;;;;;;8.70;3.00;;;11.40;99.90;;;;;;5052543;28;20037;-78
2021/11/03 10:50:01;;;;;;;5.97;3.05;;;11.30;99.90;;;;;;5052516;28;20021;-79
2021/11/03 10:52:41;;;;;;;5.40;2.40;;;11.20;99.90;;;;;;4988776;28;20406;-83
2021/11/03 10:55:15;;;;;;;4.65;3.08;;;11.30;99.90;;;;;;5049295;28;20040;-81
2021/11/03 10:57:46;;;;;;;10.15;4.35;;;11.40;99.90;;;;;;5053309;28;20135;-77
2021/11/03 11:00:28;;;;;;;5.40;3.50;;;11.40;99.90;;;;;;5052608;28;20024;-77
2021/11/03 11:03:12;;;;;;;7.57;3.70;;;11.50;99.90;;;;;;5052754;28;20071;-78
2021/11/03 11:05:43;;;;;;;4.30;3.15;;;11.50;99.90;;;;;;5037152;28;20035;-77
2021/11/03 11:08:17;;;;;;;8.70;3.33;;;11.60;99.90;;;;;;5072615;28;20060;-77
2021/11/03 11:10:58;;;;;;;6.70;3.38;;;11.60;99.90;;;;;;5055417;28;20024;-78
2021/11/03 11:13:28;;;;;;;6.00;3.47;;;11.40;99.90;;;;;;5056072;28;20139;-77
2021/11/03 11:16:12;;;;;;;5.10;3.67;;;11.30;99.90;;;;;;5071705;28;20024;-77
2021/11/03 11:18:48;;;;;;;7.85;5.18;;;11.30;99.90;;;;;;5053300;28;20029;-78
2021/11/03 11:21:26;;;;;;;7.13;4.80;;;11.30;99.90;;;;;;5053705;28;20032;-77
2021/11/03 11:24:01;;;;;;;14.07;9.40;;;11.20;99.90;;;;;;5052376;28;20395;-78
2021/11/03 11:26:50;;;;;;;17.17;8.90;;;11.10;99.90;;;;;;5069572;28;20028;-78
2021/11/03 11:29:21;;;;;;;8.50;5.70;;;11.10;99.90;;;;;;5041040;28;20030;-77
2021/11/03 11:32:01;;;;;;;9.18;4.55;;;11.20;99.90;;;;;;5052448;28;20020;-77
2021/11/03 11:34:54;;;;;;;15.98;8.50;;;11.20;99.90;;;;;;5051914;28;20051;-77
2021/11/03 11:38:01;;;;;;;15.13;7.72;;;11.60;99.90;;;;;;5052214;28;20021;-78
2021/11/03 11:40:40;;;;;;;12.57;6.13;;;11.80;99.90;;;;;;5052968;28;20036;-77
2021/11/03 11:43:33;;;;;;;11.32;7.28;;;12.00;99.90;;;;;;5052936;28;20039;-77
2021/11/03 11:46:16;;;;;;;13.32;6.78;;;11.90;99.90;;;;;;5070986;28;20031;-78
2021/11/03 11:48:44;;;;;;;7.28;5.03;;;11.70;99.90;;;;;;5070368;28;20028;-77
2021/11/03 11:51:21;;;;;;;13.40;6.82;;;11.50;99.90;;;;;;5052229;28;20071;-77
2021/11/03 11:53:46;;;;;;;24.02;10.80;;;11.30;99.90;;;;;;5069852;28;20056;-77
2021/11/03 11:56:19;;;;;;;;;;;11.20;99.90;;;;;;5071116;28;20025;-77
2021/11/03 11:58:48;;;;;;;16.02;8.60;;;11.00;99.90;;;;;;5053167;28;20379;-77
2021/11/03 12:01:29;;;;;;;11.68;7.25;;;11.10;99.90;;;;;;5052465;28;20052;-77
2021/11/03 12:03:57;;;;;;;13.07;7.00;;;11.00;99.90;;;;;;5070235;28;20496;-77
2021/11/03 12:06:44;;;;;;;11.30;7.10;;;11.00;99.90;;;;;;5070829;28;20040;-77
2021/11/03 12:09:21;;;;;;;11.02;6.82;;;11.10;99.90;;;;;;5053441;28;20488;-77
2021/11/03 12:11:55;;;;;;;16.65;6.60;;;11.20;99.90;;;;;;5058482;28;20512;-79
2021/11/03 12:14:49;;;;;;;12.23;7.28;;;11.10;99.90;;;;;;5052280;28;20091;-77
2021/11/03 12:17:35;;;;;;;10.35;7.63;;;11.10;99.90;;;;;;5070655;28;20029;-77
2021/11/03 12:20:20;;;;;;;10.98;7.32;;;11.10;99.90;;;;;;5070863;28;20036;-78
2021/11/03 12:22:47;;;;;;;14.38;8.85;;;11.10;99.90;;;;;;5051758;28;20447;-78
2021/11/03 12:25:19;;;;;;;11.10;8.07;;;11.10;99.90;;;;;;5050731;28;20029;-77
2021/11/03 12:27:47;;;;;;;18.60;10.50;;;11.20;99.90;;;;;;5050398;28;20032;-77
2021/11/03 12:30:15;;;;;;;17.27;10.70;;;11.20;99.90;;;;;;5051058;28;20032;-76
2021/11/03 12:32:44;;;;;;;12.15;8.35;;;11.20;99.90;;;;;;5050817;28;20037;-77
2021/11/03 12:35:19;;;;;;;9.30;7.35;;;11.30;99.90;;;;;;5051026;28;20082;-77
2021/11/03 12:38:09;;;;;;;11.82;7.53;;;11.20;99.90;;;;;;5051130;28;20033;-77
2021/11/03 12:40:40;;;;;;;18.25;11.27;;;11.20;99.90;;;;;;5070541;28;20491;-77
2021/11/03 12:43:14;;;;;;;9.30;7.53;;;11.20;99.90;;;;;;5053911;28;20074;-77
2021/11/03 12:45:49;;;;;;;14.27;8.30;;;11.10;99.90;;;;;;5070632;28;20035;-77
2021/11/03 12:48:26;;;;;;;15.90;8.95;;;11.20;99.90;;;;;;5055080;28;20452;-78
2021/11/03 12:50:53;;;;;;;13.30;7.68;;;11.20;99.90;;;;;;5052456;28;20025;-77
2021/11/03 12:53:33;;;;;;;13.07;8.63;;;11.20;99.90;;;;;;5052904;28;20053;-77
2021/11/03 12:56:12;;;;;;;12.18;8.43;;;11.10;99.90;;;;;;5052897;28;20024;-77
2021/11/03 12:58:44;;;;;;;11.30;7.72;;;11.20;99.90;;;;;;5070383;28;20078;-77
2021/11/03 13:01:16;;;;;;;10.07;7.00;;;11.10;99.90;;;;;;5069446;28;20032;-77
2021/11/03 13:04:16;;;;;;;11.75;8.65;;;11.10;99.90;;;;;;5051482;28;20066;-76
2021/11/03 13:06:50;;;;;;;10.13;7.72;;;10.90;99.90;;;;;;5052026;28;20100;-78
2021/11/03 13:09:34;;;;;;;11.63;7.85;;;10.80;99.90;;;;;;5053204;28;20025;-77
2021/11/03 13:12:02;;;;;;;17.58;10.13;;;10.70;99.90;;;;;;5051981;28;20794;-77